createdAt,value
2022-09-19T00:00:32.062Z,0.40
2022-09-19T00:01:36.689Z,0.40
2022-09-19T00:02:38.819Z,0.40
2022-09-19T00:03:43.550Z,0.40
2022-09-19T00:04:46.878Z,0.40
2022-09-19T00:05:48.809Z,0.40
2022-09-19T00:06:54.477Z,0.40
2022-09-19T00:07:56.451Z,0.47
2022-09-19T00:09:01.121Z,0.40
2022-09-19T00:10:03.075Z,0.38
2022-09-19T00:11:08.092Z,0.32
2022-09-19T00:12:11.035Z,0.50
2022-09-19T00:13:13.009Z,0.40
2022-09-19T00:14:21.713Z,0.45
2022-09-19T00:15:23.712Z,0.30
2022-09-19T00:16:28.829Z,0.40
2022-09-19T00:17:30.848Z,0.50
2022-09-19T00:18:34.029Z,0.43
2022-09-19T00:19:36.680Z,0.40
2022-09-19T00:20:41.497Z,0.60
2022-09-19T00:21:45.897Z,0.70
2022-09-19T00:23:02.760Z,1.15
2022-09-19T00:24:22.945Z,0.50
2022-09-19T00:25:26.192Z,0.40
2022-09-19T00:26:28.104Z,0.50
2022-09-19T00:27:31.001Z,0.70
2022-09-19T00:28:33.054Z,0.40
2022-09-19T00:29:39.342Z,0.40
2022-09-19T00:30:41.292Z,0.50
2022-09-19T00:31:45.430Z,0.60
2022-09-19T00:32:47.908Z,0.50
2022-09-19T00:33:51.594Z,0.70
2022-09-19T00:34:56.324Z,0.40
2022-09-19T00:36:03.800Z,0.40
2022-09-19T00:37:05.696Z,0.40
2022-09-19T00:38:08.598Z,0.40
2022-09-19T00:39:13.561Z,0.50
2022-09-19T00:40:16.712Z,0.60
2022-09-19T00:41:20.855Z,0.50
2022-09-19T00:42:27.794Z,0.50
2022-09-19T00:43:49.218Z,0.30
2022-09-19T00:44:57.476Z,0.40
2022-09-19T00:45:59.426Z,0.40
2022-09-19T00:47:06.909Z,0.40
2022-09-19T00:48:11.434Z,0.40
2022-09-19T00:49:16.401Z,0.50
2022-09-19T00:50:22.871Z,0.40
2022-09-19T00:51:32.934Z,1.05
2022-09-19T00:52:40.260Z,0.40
2022-09-19T00:53:44.327Z,0.50
2022-09-19T00:54:48.177Z,0.45
2022-09-19T00:55:52.509Z,0.47
2022-09-19T00:56:55.961Z,0.50
2022-09-19T00:58:07.648Z,0.50
2022-09-19T00:59:10.424Z,0.40
2022-09-19T01:00:15.965Z,0.40
2022-09-19T01:01:18.007Z,0.40
2022-09-19T01:02:24.556Z,0.50
2022-09-19T01:03:27.775Z,0.40
2022-09-19T01:04:31.616Z,0.40
2022-09-19T01:05:43.349Z,0.40
2022-09-19T01:06:57.585Z,0.30
2022-09-19T01:08:29.454Z,0.40
2022-09-19T01:09:46.074Z,0.40
2022-09-19T01:11:26.806Z,0.50
2022-09-19T01:12:48.819Z,0.30
2022-09-19T01:14:00.220Z,0.40
2022-09-19T01:15:20.754Z,0.30
2022-09-19T01:16:34.630Z,0.40
2022-09-19T01:17:47.123Z,0.35
2022-09-19T01:18:54.425Z,0.32
2022-09-19T01:20:34.129Z,0.50
2022-09-19T01:21:42.273Z,0.50
2022-09-19T01:22:58.410Z,0.50
2022-09-19T01:24:31.420Z,0.40
2022-09-19T01:25:41.770Z,0.47
2022-09-19T01:27:01.627Z,0.30
2022-09-19T01:28:19.969Z,0.32
2022-09-19T01:29:25.026Z,0.30
2022-09-19T01:30:26.973Z,0.50
2022-09-19T01:31:32.410Z,0.40
2022-09-19T01:32:38.933Z,0.30
2022-09-19T01:33:44.164Z,0.40
2022-09-19T01:34:51.575Z,0.50
2022-09-19T01:35:55.442Z,1.00
2022-09-19T01:37:04.448Z,0.50
2022-09-19T01:38:12.170Z,0.30
2022-09-19T01:39:19.537Z,0.52
2022-09-19T01:40:23.787Z,0.40
2022-09-19T01:41:25.799Z,0.40
2022-09-19T01:42:29.317Z,0.32
2022-09-19T01:43:32.576Z,0.30
2022-09-19T01:44:35.555Z,0.30
2022-09-19T01:45:38.214Z,0.30
2022-09-19T01:46:53.163Z,0.60
2022-09-19T01:48:06.587Z,0.40
2022-09-19T01:49:21.456Z,0.50
2022-09-19T01:50:36.821Z,0.40
2022-09-19T01:51:46.584Z,0.40
2022-09-19T01:52:58.453Z,0.85
2022-09-19T01:54:17.962Z,0.40
2022-09-19T01:55:27.610Z,0.30
2022-09-19T01:56:38.505Z,0.40
2022-09-19T01:57:46.309Z,0.35
2022-09-19T01:58:58.140Z,0.30
2022-09-19T02:00:10.558Z,0.40
2022-09-19T02:01:21.989Z,0.40
2022-09-19T02:02:35.706Z,0.40
2022-09-19T02:03:50.013Z,0.40
2022-09-19T02:05:00.078Z,0.40
2022-09-19T02:06:08.981Z,0.32
2022-09-19T02:07:21.262Z,0.30
2022-09-19T02:08:30.332Z,0.30
2022-09-19T02:09:43.630Z,0.40
2022-09-19T02:10:51.025Z,0.40
2022-09-19T02:11:53.267Z,0.40
2022-09-19T02:12:58.798Z,0.30
2022-09-19T02:14:17.642Z,0.40
2022-09-19T02:15:24.085Z,0.30
2022-09-19T02:16:31.854Z,0.40
2022-09-19T02:17:45.832Z,0.30
2022-09-19T02:18:54.929Z,0.40
2022-09-19T02:20:02.860Z,0.40
2022-09-19T02:21:09.213Z,0.40
2022-09-19T02:22:17.153Z,0.40
2022-09-19T02:23:23.689Z,0.30
2022-09-19T02:24:29.685Z,0.35
2022-09-19T02:25:35.532Z,0.30
2022-09-19T02:26:41.889Z,0.38
2022-09-19T02:27:51.248Z,0.40
2022-09-19T02:28:58.317Z,0.30
2022-09-19T02:30:06.233Z,0.40
2022-09-19T02:31:10.908Z,0.80
2022-09-19T02:32:12.980Z,0.50
2022-09-19T02:33:17.061Z,0.40
2022-09-19T02:34:19.678Z,0.30
2022-09-19T02:35:35.985Z,0.38
2022-09-19T02:36:43.517Z,0.70
2022-09-19T02:37:49.868Z,0.38
2022-09-19T02:39:02.173Z,0.30
2022-09-19T02:40:10.909Z,0.50
2022-09-19T02:41:22.623Z,0.38
2022-09-19T02:42:34.995Z,0.60
2022-09-19T02:43:43.557Z,0.40
2022-09-19T02:44:59.693Z,0.40
2022-09-19T02:46:08.991Z,0.50
2022-09-19T02:47:17.554Z,0.40
2022-09-19T02:48:27.297Z,0.30
2022-09-19T02:49:39.794Z,0.47
2022-09-19T02:50:47.605Z,0.50
2022-09-19T02:51:55.695Z,0.30
2022-09-19T02:53:02.405Z,0.40
2022-09-19T02:54:09.464Z,0.40
2022-09-19T02:55:15.557Z,0.50
2022-09-19T02:56:20.398Z,0.40
2022-09-19T02:57:26.343Z,0.40
2022-09-19T02:58:32.357Z,0.52
2022-09-19T02:59:39.141Z,0.40
2022-09-19T03:00:41.764Z,0.65
2022-09-19T03:01:51.860Z,0.50
2022-09-19T03:02:58.924Z,0.40
2022-09-19T03:04:14.454Z,0.55
2022-09-19T03:05:21.530Z,0.40
2022-09-19T03:06:28.885Z,0.60
2022-09-19T03:07:38.499Z,0.40
2022-09-19T03:08:40.658Z,0.50
2022-09-19T03:09:50.036Z,0.43
2022-09-19T03:10:55.400Z,0.45
2022-09-19T03:12:04.261Z,0.40
2022-09-19T03:13:09.405Z,0.70
2022-09-19T03:14:13.641Z,0.50
2022-09-19T03:15:17.469Z,0.73
2022-09-19T03:16:24.842Z,0.50
2022-09-19T03:17:32.945Z,0.43
2022-09-19T03:18:38.898Z,0.50
2022-09-19T03:19:42.337Z,0.50
2022-09-19T03:20:49.194Z,0.88
2022-09-19T03:21:53.490Z,0.40
2022-09-19T03:22:56.449Z,0.73
2022-09-19T03:23:59.892Z,0.50
2022-09-19T03:25:03.228Z,0.70
2022-09-19T03:26:10.028Z,0.60
2022-09-19T03:27:12.937Z,0.40
2022-09-19T03:28:20.493Z,0.50
2022-09-19T03:29:23.389Z,0.60
2022-09-19T03:30:25.373Z,0.60
2022-09-19T03:31:28.711Z,0.80
2022-09-19T03:32:31.991Z,0.50
2022-09-19T03:33:35.274Z,0.60
2022-09-19T03:34:38.511Z,0.93
2022-09-19T03:35:40.731Z,0.63
2022-09-19T03:36:45.016Z,0.60
2022-09-19T03:37:47.000Z,0.60
2022-09-19T03:38:50.270Z,0.60
2022-09-19T03:39:52.229Z,0.68
2022-09-19T03:40:55.137Z,0.45
2022-09-19T03:41:57.084Z,0.70
2022-09-19T03:43:00.009Z,0.70
2022-09-19T03:44:02.885Z,0.50
2022-09-19T03:45:07.533Z,0.60
2022-09-19T03:46:11.142Z,0.55
2022-09-19T03:47:14.222Z,0.60
2022-09-19T03:48:17.536Z,0.63
2022-09-19T03:49:21.164Z,0.80
2022-09-19T03:50:24.517Z,0.60
2022-09-19T03:51:27.866Z,0.70
2022-09-19T03:52:29.790Z,0.60
2022-09-19T03:53:32.769Z,0.63
2022-09-19T03:54:35.254Z,0.80
2022-09-19T03:55:39.365Z,0.60
2022-09-19T03:56:41.282Z,0.73
2022-09-19T03:57:44.205Z,0.70
2022-09-19T03:58:46.578Z,0.57
2022-09-19T03:59:49.513Z,0.60
2022-09-19T04:00:51.827Z,0.70
2022-09-19T04:01:55.802Z,0.60
2022-09-19T04:02:57.770Z,0.60
2022-09-19T04:04:02.765Z,0.70
2022-09-19T04:05:05.464Z,0.70
2022-09-19T04:06:10.104Z,0.60
2022-09-19T04:07:12.092Z,0.73
2022-09-19T04:08:15.008Z,0.73
2022-09-19T04:09:17.071Z,0.75
2022-09-19T04:10:20.035Z,0.60
2022-09-19T04:11:22.105Z,1.65
2022-09-19T04:12:25.275Z,0.50
2022-09-19T04:13:29.218Z,0.80
2022-09-19T04:14:32.650Z,0.80
2022-09-19T04:15:34.560Z,0.70
2022-09-19T04:16:37.646Z,1.25
2022-09-19T04:17:42.765Z,0.75
2022-09-19T04:18:48.624Z,0.70
2022-09-19T04:19:53.385Z,0.70
2022-09-19T04:20:57.337Z,0.60
2022-09-19T04:22:02.218Z,0.65
2022-09-19T04:23:05.420Z,0.60
2022-09-19T04:24:07.509Z,0.70
2022-09-19T04:25:12.121Z,0.85
2022-09-19T04:26:14.985Z,0.75
2022-09-19T04:27:21.104Z,0.60
2022-09-19T04:28:24.506Z,0.80
2022-09-19T04:29:28.651Z,0.60
2022-09-19T04:30:30.877Z,1.15
2022-09-19T04:31:39.551Z,0.52
2022-09-19T04:32:44.347Z,0.70
2022-09-19T04:33:47.261Z,0.68
2022-09-19T04:34:50.365Z,0.90
2022-09-19T04:36:00.860Z,0.75
2022-09-19T04:37:03.826Z,0.77
2022-09-19T04:38:08.903Z,0.82
2022-09-19T04:39:12.593Z,0.70
2022-09-19T04:40:14.717Z,0.60
2022-09-19T04:41:17.698Z,0.63
2022-09-19T04:42:19.717Z,0.80
2022-09-19T04:43:23.347Z,0.70
2022-09-19T04:44:29.590Z,0.80
2022-09-19T04:45:32.891Z,0.70
2022-09-19T04:46:34.925Z,1.00
2022-09-19T04:47:39.325Z,1.05
2022-09-19T04:48:42.257Z,0.70
2022-09-19T04:49:44.245Z,0.77
2022-09-19T04:50:51.169Z,0.65
2022-09-19T04:51:57.970Z,0.60
2022-09-19T04:53:00.152Z,0.80
2022-09-19T04:54:03.421Z,0.70
2022-09-19T04:55:06.313Z,0.73
2022-09-19T04:56:09.528Z,0.75
2022-09-19T04:57:11.599Z,0.90
2022-09-19T04:58:16.477Z,0.85
2022-09-19T04:59:18.809Z,0.90
2022-09-19T05:00:38.256Z,0.70
2022-09-19T05:01:41.628Z,0.65
2022-09-19T05:02:43.798Z,0.90
2022-09-19T05:03:46.714Z,0.70
2022-09-19T05:04:48.985Z,0.70
2022-09-19T05:05:53.173Z,0.68
2022-09-19T05:06:56.873Z,0.60
2022-09-19T05:08:00.676Z,0.80
2022-09-19T05:09:03.930Z,0.70
2022-09-19T05:10:07.764Z,1.23
2022-09-19T05:11:09.918Z,0.80
2022-09-19T05:12:13.088Z,0.95
2022-09-19T05:13:15.452Z,0.80
2022-09-19T05:14:18.734Z,0.90
2022-09-19T05:15:23.906Z,0.80
2022-09-19T05:16:29.046Z,0.95
2022-09-19T05:17:31.846Z,0.70
2022-09-19T05:18:38.591Z,0.90
2022-09-19T05:19:40.605Z,0.90
2022-09-19T05:20:43.581Z,0.85
2022-09-19T05:21:45.979Z,0.90
2022-09-19T05:22:50.304Z,0.80
2022-09-19T05:23:52.862Z,0.70
2022-09-19T05:24:56.276Z,1.00
2022-09-19T05:26:04.180Z,0.80
2022-09-19T05:27:07.281Z,0.80
2022-09-19T05:28:10.665Z,1.17
2022-09-19T05:29:14.296Z,1.00
2022-09-19T05:30:16.576Z,1.13
2022-09-19T05:31:21.245Z,0.70
2022-09-19T05:32:23.341Z,1.25
2022-09-19T05:33:27.519Z,0.77
2022-09-19T05:34:29.424Z,0.90
2022-09-19T05:35:32.822Z,0.70
2022-09-19T05:36:35.716Z,1.00
2022-09-19T05:37:41.927Z,0.80
2022-09-19T05:38:47.297Z,0.98
2022-09-19T05:39:49.329Z,0.65
2022-09-19T05:40:54.000Z,0.80
2022-09-19T05:41:56.360Z,0.80
2022-09-19T05:43:04.107Z,1.00
2022-09-19T05:44:06.126Z,0.90
2022-09-19T05:45:10.553Z,1.20
2022-09-19T05:46:13.636Z,0.90
2022-09-19T05:47:16.601Z,1.50
2022-09-19T05:48:19.872Z,0.95
2022-09-19T05:49:21.773Z,0.80
2022-09-19T05:50:24.980Z,0.90
2022-09-19T05:51:26.876Z,0.75
2022-09-19T05:52:47.133Z,1.00
2022-09-19T05:53:54.264Z,1.05
2022-09-19T05:54:56.404Z,0.98
2022-09-19T05:55:59.564Z,0.75
2022-09-19T05:57:02.005Z,0.70
2022-09-19T05:58:07.508Z,0.90
2022-09-19T05:59:11.201Z,0.70
2022-09-19T06:00:14.726Z,0.82
2022-09-19T06:01:17.723Z,0.90
2022-09-19T06:02:21.525Z,0.70
2022-09-19T06:03:24.477Z,1.20
2022-09-19T06:04:27.679Z,0.80
2022-09-19T06:05:33.323Z,0.85
2022-09-19T06:06:37.851Z,0.90
2022-09-19T06:07:39.777Z,0.80
2022-09-19T06:08:44.261Z,0.75
2022-09-19T06:09:47.536Z,0.80
2022-09-19T06:10:51.808Z,1.75
2022-09-19T06:11:54.756Z,1.00
2022-09-19T06:12:56.914Z,0.80
2022-09-19T06:14:19.726Z,1.05
2022-09-19T06:15:21.708Z,0.70
2022-09-19T06:16:25.005Z,1.17
2022-09-19T06:17:28.077Z,0.90
2022-09-19T06:18:31.026Z,0.80
2022-09-19T06:21:10.535Z,0.80
2022-09-19T06:22:12.437Z,0.63
2022-09-19T06:23:15.651Z,1.20
2022-09-19T06:24:17.904Z,0.70
2022-09-19T06:25:22.169Z,1.00
2022-09-19T06:26:24.195Z,0.75
2022-09-19T06:27:27.445Z,1.10
2022-09-19T06:28:29.417Z,1.15
2022-09-19T06:29:32.352Z,0.98
2022-09-19T06:30:34.804Z,1.10
2022-09-19T06:31:38.195Z,0.98
2022-09-19T06:32:40.753Z,0.90
2022-09-19T06:33:44.547Z,0.93
2022-09-19T06:34:57.755Z,0.95
2022-09-19T06:36:02.609Z,0.80
2022-09-19T06:37:09.047Z,1.00
2022-09-19T06:38:12.658Z,0.95
2022-09-19T06:39:15.881Z,1.30
2022-09-19T06:40:21.873Z,0.90
2022-09-19T06:41:25.489Z,1.00
2022-09-19T06:42:29.428Z,1.05
2022-09-19T06:43:32.092Z,0.77
2022-09-19T06:44:35.020Z,0.90
2022-09-19T06:45:39.339Z,0.90
2022-09-19T06:46:42.475Z,1.02
2022-09-19T06:47:44.437Z,2.05
2022-09-19T06:48:49.532Z,1.10
2022-09-19T06:49:51.449Z,1.33
2022-09-19T06:50:54.425Z,1.10
2022-09-19T06:51:58.040Z,1.30
2022-09-19T06:53:01.226Z,1.45
2022-09-19T06:54:03.946Z,1.20
2022-09-19T06:55:07.681Z,1.30
2022-09-19T06:56:09.960Z,1.10
2022-09-19T06:57:14.232Z,1.02
2022-09-19T06:58:16.450Z,1.15
2022-09-19T06:59:19.381Z,1.20
2022-09-19T07:00:23.681Z,1.20
2022-09-19T07:01:27.220Z,1.40
2022-09-19T07:02:29.431Z,0.95
2022-09-19T07:03:32.557Z,0.80
2022-09-19T07:04:35.245Z,1.00
2022-09-19T07:05:40.859Z,1.17
2022-09-19T07:06:45.423Z,0.90
2022-09-19T07:07:47.573Z,1.33
2022-09-19T07:08:50.514Z,1.40
2022-09-19T07:09:52.787Z,1.08
2022-09-19T07:10:58.103Z,1.58
2022-09-19T07:12:02.287Z,1.35
2022-09-19T07:13:07.817Z,1.45
2022-09-19T07:14:11.593Z,1.02
2022-09-19T07:15:14.631Z,1.02
2022-09-19T07:16:16.627Z,1.30
2022-09-19T07:17:19.573Z,1.15
2022-09-19T07:18:21.540Z,1.40
2022-09-19T07:19:24.508Z,1.40
2022-09-19T07:20:28.718Z,1.20
2022-09-19T07:21:31.852Z,1.10
2022-09-19T07:22:36.437Z,1.02
2022-09-19T07:23:39.803Z,1.50
2022-09-19T07:24:42.163Z,1.20
2022-09-19T07:25:45.833Z,1.27
2022-09-19T07:26:47.794Z,1.33
2022-09-19T07:27:58.037Z,1.27
2022-09-19T07:29:03.998Z,1.08
2022-09-19T07:30:07.348Z,1.27
2022-09-19T07:31:10.669Z,1.40
2022-09-19T07:32:12.584Z,1.17
2022-09-19T07:33:16.813Z,1.50
2022-09-19T07:34:19.165Z,1.10
2022-09-19T07:35:22.145Z,1.00
2022-09-19T07:36:25.072Z,1.88
2022-09-19T07:37:28.758Z,1.10
2022-09-19T07:38:31.790Z,1.00
2022-09-19T07:39:52.001Z,1.52
2022-09-19T07:40:57.154Z,0.88
2022-09-19T07:42:00.417Z,1.75
2022-09-19T07:43:04.967Z,0.90
2022-09-19T07:44:08.233Z,1.50
2022-09-19T07:45:12.301Z,1.42
2022-09-19T07:46:16.216Z,1.02
2022-09-19T07:47:31.226Z,1.10
2022-09-19T07:48:33.177Z,1.20
2022-09-19T07:49:36.101Z,1.40
2022-09-19T07:50:38.184Z,1.60
2022-09-19T07:51:41.098Z,1.10
2022-09-19T07:52:44.551Z,1.05
2022-09-19T07:53:47.682Z,1.02
2022-09-19T07:54:49.653Z,1.15
2022-09-19T07:55:54.054Z,1.15
2022-09-19T07:56:55.993Z,0.93
2022-09-19T07:58:00.577Z,1.27
2022-09-19T07:59:03.597Z,0.80
2022-09-19T08:00:08.900Z,1.13
2022-09-19T08:01:11.969Z,1.13
2022-09-19T08:02:13.977Z,1.20
2022-09-19T08:03:18.419Z,0.93
2022-09-19T08:04:20.323Z,1.17
2022-09-19T08:05:23.433Z,1.30
2022-09-19T08:06:26.325Z,1.13
2022-09-19T08:07:29.250Z,1.20
2022-09-19T08:08:31.223Z,1.50
2022-09-19T08:09:34.295Z,1.25
2022-09-19T08:10:37.302Z,1.30
2022-09-19T08:11:40.430Z,1.10
2022-09-19T08:12:44.357Z,1.65
2022-09-19T08:13:48.116Z,1.13
2022-09-19T08:14:50.471Z,1.10
2022-09-19T08:15:57.699Z,1.27
2022-09-19T08:17:01.657Z,1.38
2022-09-19T08:18:06.864Z,1.00
2022-09-19T08:19:09.982Z,1.10
2022-09-19T08:20:13.240Z,1.10
2022-09-19T08:21:15.282Z,1.05
2022-09-19T08:22:18.188Z,0.90
2022-09-19T08:23:22.598Z,0.90
2022-09-19T08:24:25.077Z,1.45
2022-09-19T08:25:29.446Z,1.15
2022-09-19T08:26:31.544Z,1.02
2022-09-19T08:27:35.144Z,0.90
2022-09-19T08:28:37.745Z,1.20
2022-09-19T08:29:40.652Z,0.85
2022-09-19T08:30:43.224Z,0.85
2022-09-19T08:31:47.902Z,0.98
2022-09-19T08:32:51.878Z,1.23
2022-09-19T08:33:54.785Z,1.20
2022-09-19T08:34:56.694Z,0.80
2022-09-19T08:36:00.709Z,1.10
2022-09-19T08:37:02.708Z,1.00
2022-09-19T08:38:07.206Z,1.20
2022-09-19T08:39:09.242Z,1.05
2022-09-19T08:40:18.364Z,0.93
2022-09-19T08:41:49.002Z,1.05
2022-09-19T08:43:02.641Z,1.10
2022-09-19T08:44:12.248Z,1.25
2022-09-19T08:45:24.104Z,0.70
2022-09-19T08:46:34.417Z,1.08
2022-09-19T08:47:38.927Z,1.05
2022-09-19T08:48:52.264Z,1.30
2022-09-19T08:49:57.913Z,0.80
2022-09-19T08:51:07.761Z,0.85
2022-09-19T08:52:16.013Z,1.00
2022-09-19T08:53:28.212Z,0.90
2022-09-19T08:54:34.969Z,1.15
2022-09-19T08:55:37.454Z,1.10
2022-09-19T08:56:41.289Z,0.80
2022-09-19T08:57:52.074Z,0.90
2022-09-19T08:58:59.219Z,1.45
2022-09-19T09:00:05.336Z,1.00
2022-09-19T09:01:09.445Z,0.85
2022-09-19T09:02:25.334Z,0.80
2022-09-19T09:03:35.017Z,0.93
2022-09-19T09:04:38.986Z,0.98
2022-09-19T09:05:49.090Z,1.10
2022-09-19T09:07:04.028Z,0.70
2022-09-19T09:08:14.409Z,1.20
2022-09-19T09:09:28.690Z,0.98
2022-09-19T09:10:46.493Z,0.90
2022-09-19T09:11:57.294Z,0.98
2022-09-19T09:13:09.120Z,0.90
2022-09-19T09:14:21.845Z,0.95
2022-09-19T09:15:49.397Z,0.65
2022-09-19T09:17:03.156Z,1.23
2022-09-19T09:18:22.340Z,0.88
2022-09-19T09:19:47.105Z,1.10
2022-09-19T09:20:55.177Z,1.00
2022-09-19T09:22:03.574Z,1.00
2022-09-19T09:23:13.012Z,1.10
2022-09-19T09:24:33.462Z,0.80
2022-09-19T09:25:40.324Z,1.15
2022-09-19T09:26:46.489Z,0.90
2022-09-19T09:27:56.837Z,1.20
2022-09-19T09:29:09.571Z,0.90
2022-09-19T09:30:17.681Z,0.90
2022-09-19T09:31:26.585Z,1.10
2022-09-19T09:32:33.756Z,1.00
2022-09-19T09:34:35.808Z,1.20
2022-09-19T09:35:44.833Z,0.95
2022-09-19T09:36:51.905Z,1.10
2022-09-19T09:38:02.166Z,1.23
2022-09-19T09:39:13.636Z,0.95
2022-09-19T09:40:45.505Z,1.20
2022-09-19T09:41:52.294Z,1.00
2022-09-19T09:43:04.076Z,1.02
2022-09-19T09:44:34.158Z,0.80
2022-09-19T09:45:45.066Z,1.08
2022-09-19T09:46:57.145Z,0.85
2022-09-19T09:48:10.405Z,1.25
2022-09-19T09:49:13.819Z,0.93
2022-09-19T09:50:38.547Z,1.52
2022-09-19T09:51:54.560Z,1.10
2022-09-19T09:53:04.362Z,0.90
2022-09-19T09:54:42.405Z,1.00
2022-09-19T09:56:10.660Z,0.70
2022-09-19T09:57:21.144Z,0.98
2022-09-19T09:58:30.522Z,0.80
2022-09-19T09:59:56.637Z,0.90
2022-09-19T10:01:51.445Z,1.27
2022-09-19T10:03:24.081Z,1.08
2022-09-19T10:04:34.983Z,1.00
2022-09-19T10:05:43.388Z,1.23
2022-09-19T10:06:53.281Z,0.77
2022-09-19T10:08:02.981Z,1.05
2022-09-19T10:09:10.838Z,1.13
2022-09-19T10:10:16.924Z,1.10
2022-09-19T10:12:58.764Z,0.93
2022-09-19T10:14:05.310Z,1.42
2022-09-19T10:15:15.724Z,1.20
2022-09-19T10:16:18.918Z,1.10
2022-09-19T10:17:22.097Z,1.40
2022-09-19T10:18:30.515Z,1.08
2022-09-19T10:19:38.912Z,1.00
2022-09-19T10:20:50.235Z,1.15
2022-09-19T10:21:54.913Z,1.00
2022-09-19T10:22:57.318Z,1.33
2022-09-19T10:24:00.238Z,1.42
2022-09-19T10:25:10.918Z,0.90
2022-09-19T10:26:16.528Z,1.00
2022-09-19T10:27:25.072Z,1.30
2022-09-19T10:28:32.065Z,1.40
2022-09-19T10:29:35.004Z,1.33
2022-09-19T10:30:42.586Z,1.83
2022-09-19T10:31:48.572Z,1.35
2022-09-19T10:32:51.765Z,0.88
2022-09-19T10:33:54.691Z,0.98
2022-09-19T10:34:56.585Z,1.00
2022-09-19T10:36:07.818Z,1.20
2022-09-19T10:37:14.075Z,1.10
2022-09-19T10:38:19.018Z,1.35
2022-09-19T10:39:24.326Z,1.50
2022-09-19T10:40:28.115Z,1.10
2022-09-19T10:41:33.058Z,1.20
2022-09-19T10:42:38.545Z,1.20
2022-09-19T10:43:48.412Z,0.93
2022-09-19T10:44:53.394Z,1.25
2022-09-19T10:45:56.489Z,1.05
2022-09-19T10:47:02.529Z,1.00
2022-09-19T10:48:14.128Z,1.00
2022-09-19T10:49:20.169Z,1.10
2022-09-19T10:50:23.557Z,1.05
2022-09-19T10:51:32.877Z,1.40
2022-09-19T10:52:52.963Z,1.02
2022-09-19T10:53:58.049Z,0.80
2022-09-19T10:55:05.489Z,1.30
2022-09-19T10:56:23.510Z,1.27
2022-09-19T10:57:41.378Z,1.00
2022-09-19T10:58:44.857Z,1.10
2022-09-19T10:59:52.456Z,1.15
2022-09-19T11:00:57.393Z,1.10
2022-09-19T11:02:17.693Z,1.02
2022-09-19T11:03:24.642Z,1.48
2022-09-19T11:04:26.805Z,1.13
2022-09-19T11:05:32.335Z,0.93
2022-09-19T11:06:35.834Z,1.75
2022-09-19T11:07:55.466Z,1.30
2022-09-19T11:08:59.142Z,1.48
2022-09-19T11:10:02.463Z,1.20
2022-09-19T11:11:23.836Z,1.08
2022-09-19T11:12:27.479Z,1.38
2022-09-19T11:13:30.720Z,1.05
2022-09-19T11:14:34.501Z,1.00
2022-09-19T11:15:56.484Z,1.20
2022-09-19T11:17:28.973Z,1.05
2022-09-19T11:18:54.526Z,0.90
2022-09-19T11:20:17.175Z,1.00
2022-09-19T11:21:31.132Z,1.50
2022-09-19T11:22:49.416Z,1.15
2022-09-19T11:24:20.905Z,1.20
2022-09-19T11:25:30.102Z,1.25
2022-09-19T11:26:49.333Z,0.90
2022-09-19T11:28:07.310Z,1.02
2022-09-19T11:29:27.168Z,0.90
2022-09-19T11:30:33.614Z,1.33
2022-09-19T11:35:18.633Z,1.35
2022-09-19T11:36:40.734Z,0.90
2022-09-19T11:37:56.960Z,0.90
2022-09-19T11:40:46.464Z,1.10
2022-09-19T11:42:03.400Z,1.17
2022-09-19T11:43:16.223Z,1.10
2022-09-19T11:44:35.198Z,0.90
2022-09-19T11:45:52.337Z,0.95
2022-09-19T11:47:01.934Z,1.25
2022-09-19T11:48:25.351Z,0.82
2022-09-19T11:49:58.091Z,1.65
2022-09-19T11:51:09.490Z,0.93
2022-09-19T11:52:26.497Z,1.27
2022-09-19T11:53:52.142Z,1.10
2022-09-19T11:55:11.880Z,1.02
2022-09-19T11:56:29.104Z,1.00
2022-09-19T11:57:41.520Z,0.82
2022-09-19T11:58:53.083Z,0.82
2022-09-19T12:00:15.045Z,1.00
2022-09-19T12:01:35.630Z,1.10
2022-09-19T12:02:50.768Z,1.20
2022-09-19T12:04:07.327Z,1.27
2022-09-19T12:05:21.701Z,0.85
2022-09-19T12:06:40.126Z,1.00
2022-09-19T12:07:55.913Z,1.50
2022-09-19T12:09:15.754Z,0.70
2022-09-19T12:10:23.376Z,0.70
2022-09-19T12:11:33.691Z,0.70
2022-09-19T12:12:40.543Z,1.25
2022-09-19T12:13:47.350Z,0.80
2022-09-19T12:14:59.243Z,0.70
2022-09-19T12:16:08.696Z,1.00
2022-09-19T12:17:18.306Z,0.70
2022-09-19T12:18:26.288Z,0.88
2022-09-19T12:19:34.792Z,0.70
2022-09-19T12:20:42.182Z,0.90
2022-09-19T12:21:49.587Z,1.00
2022-09-19T12:22:56.913Z,0.90
2022-09-19T12:24:21.853Z,1.05
2022-09-19T12:25:30.405Z,0.90
2022-09-19T12:26:35.338Z,1.00
2022-09-19T12:27:42.657Z,0.88
2022-09-19T12:28:53.881Z,1.00
2022-09-19T12:30:03.863Z,1.25
2022-09-19T12:31:11.721Z,1.35
2022-09-19T12:32:23.372Z,0.77
2022-09-19T12:33:33.912Z,1.58
2022-09-19T12:34:42.454Z,1.13
2022-09-19T12:35:51.814Z,1.30
2022-09-19T12:36:59.362Z,0.90
2022-09-19T12:38:17.934Z,0.85
2022-09-19T12:39:30.002Z,0.93
2022-09-19T12:40:41.403Z,1.20
2022-09-19T12:41:54.541Z,1.00
2022-09-19T12:43:08.853Z,0.98
2022-09-19T12:44:18.239Z,1.42
2022-09-19T12:45:25.018Z,1.38
2022-09-19T12:46:40.077Z,1.00
2022-09-19T12:47:56.014Z,1.00
2022-09-19T12:49:04.621Z,1.10
2022-09-19T12:50:21.129Z,0.70
2022-09-19T12:51:34.127Z,1.00
2022-09-19T12:52:37.962Z,1.10
2022-09-19T12:53:45.317Z,0.95
2022-09-19T12:54:53.249Z,1.10
2022-09-19T12:56:05.944Z,0.80
2022-09-19T12:57:17.187Z,1.30
2022-09-19T12:58:27.427Z,1.23
2022-09-19T12:59:34.313Z,1.35
2022-09-19T13:00:45.606Z,1.10
2022-09-19T13:01:53.589Z,1.30
2022-09-19T13:03:04.185Z,0.80
2022-09-19T13:04:26.814Z,0.90
2022-09-19T13:05:37.142Z,1.13
2022-09-19T13:06:43.446Z,1.00
2022-09-19T13:07:51.173Z,1.00
2022-09-19T13:09:03.621Z,1.17
2022-09-19T13:10:16.960Z,1.10
2022-09-19T13:11:28.190Z,1.25
2022-09-19T13:12:41.392Z,0.90
2022-09-19T13:13:52.430Z,0.80
2022-09-19T13:14:57.899Z,1.20
2022-09-19T13:16:03.235Z,0.95
2022-09-19T13:17:26.262Z,0.70
2022-09-19T13:18:50.437Z,0.82
2022-09-19T13:20:13.032Z,1.45
2022-09-19T13:21:36.400Z,0.70
2022-09-19T13:23:03.451Z,0.90
2022-09-19T13:24:07.741Z,1.00
2022-09-19T13:25:15.100Z,0.80
2022-09-19T13:26:25.957Z,1.10
2022-09-19T13:27:27.961Z,0.73
2022-09-19T13:28:35.728Z,1.30
2022-09-19T13:29:50.546Z,1.05
2022-09-19T13:30:59.305Z,1.50
2022-09-19T13:32:08.954Z,0.73
2022-09-19T13:33:23.007Z,0.80
2022-09-19T13:34:41.548Z,0.90
2022-09-19T13:35:51.502Z,1.05
2022-09-19T13:36:54.404Z,0.75
2022-09-19T13:38:01.486Z,0.90
2022-09-19T13:39:06.962Z,0.90
2022-09-19T13:40:23.273Z,1.05
2022-09-19T13:41:32.460Z,1.00
2022-09-19T13:42:41.776Z,1.05
2022-09-19T13:44:06.818Z,0.80
2022-09-19T13:45:18.656Z,0.80
2022-09-19T13:46:28.992Z,1.77
2022-09-19T13:47:32.043Z,0.98
2022-09-19T13:48:40.040Z,0.80
2022-09-19T13:49:49.809Z,1.02
2022-09-19T13:50:57.532Z,0.75
2022-09-19T13:52:09.711Z,0.90
2022-09-19T13:53:32.469Z,1.00
2022-09-19T13:55:03.167Z,1.08
2022-09-19T13:56:25.707Z,1.10
2022-09-19T13:57:33.446Z,1.20
2022-09-19T13:58:40.509Z,0.98
2022-09-19T13:59:50.507Z,1.10
2022-09-19T14:01:11.175Z,1.20
2022-09-19T14:02:28.362Z,1.20
2022-09-19T14:03:36.025Z,0.93
2022-09-19T14:04:55.358Z,1.20
2022-09-19T14:06:21.657Z,0.90
2022-09-19T14:10:49.815Z,0.93
2022-09-19T14:11:52.577Z,1.00
2022-09-19T14:13:02.443Z,1.35
2022-09-19T14:14:41.814Z,1.20
2022-09-19T14:16:05.203Z,1.15
2022-09-19T14:17:17.597Z,0.98
2022-09-19T14:18:48.029Z,0.95
2022-09-19T14:19:51.716Z,1.23
2022-09-19T14:20:55.650Z,1.00
2022-09-19T14:21:59.259Z,0.80
2022-09-19T14:23:03.357Z,1.23
2022-09-19T14:24:15.989Z,1.15
2022-09-19T14:25:23.133Z,1.00
2022-09-19T14:26:41.433Z,1.35
2022-09-19T14:28:06.793Z,0.82
2022-09-19T14:29:25.464Z,1.10
2022-09-19T14:30:50.429Z,0.90
2022-09-19T14:32:07.719Z,0.90
2022-09-19T14:33:54.455Z,1.10
2022-09-19T14:35:32.745Z,0.90
2022-09-19T14:37:08.958Z,0.80
2022-09-19T14:38:40.136Z,0.73
2022-09-19T14:39:49.959Z,1.30
2022-09-19T14:41:00.965Z,1.40
2022-09-19T14:42:20.309Z,1.25
2022-09-19T14:43:57.005Z,1.40
2022-09-19T14:45:32.722Z,0.90
2022-09-19T14:46:38.692Z,1.02
2022-09-19T14:47:44.352Z,1.05
2022-09-19T14:48:55.881Z,1.23
2022-09-19T14:50:04.382Z,1.20
2022-09-19T14:51:21.185Z,1.02
2022-09-19T14:52:27.085Z,1.40
2022-09-19T14:53:34.325Z,1.15
2022-09-19T14:54:42.655Z,0.70
2022-09-19T14:55:50.461Z,1.00
2022-09-19T14:57:01.170Z,1.25
2022-09-19T14:58:04.085Z,1.10
2022-09-19T14:59:07.827Z,0.93
2022-09-19T15:00:24.756Z,1.10
2022-09-19T15:01:33.261Z,1.15
2022-09-19T15:02:36.937Z,1.25
2022-09-19T15:03:50.717Z,1.05
2022-09-19T15:05:00.418Z,0.95
2022-09-19T15:06:03.407Z,1.60
2022-09-19T15:07:05.314Z,1.33
2022-09-19T15:08:25.289Z,1.20
2022-09-19T15:09:30.650Z,1.15
2022-09-19T15:10:38.864Z,1.00
2022-09-19T15:11:49.560Z,1.35
2022-09-19T15:12:51.529Z,0.88
2022-09-19T15:13:56.280Z,1.00
2022-09-19T15:15:00.097Z,1.05
2022-09-19T15:16:07.042Z,1.45
2022-09-19T15:17:12.868Z,1.20
2022-09-19T15:18:22.669Z,1.73
2022-09-19T15:19:25.601Z,1.10
2022-09-19T15:20:29.353Z,1.05